Weather at Arad Airport

Public forecast

Using degrees Celsius for public forecast. Weather courtesy of forecast.io.

Closest aviation weather report (METAR) to Arad Airport

Closest report is Ben Gurion International Airport, 49.4 nm (91.6 km) NNW. Retrieved 2022/05/23 06:50 UTC (2 hours ago):

LLBG 230650Z 25013KT 9999 FEW025 SCT030 23/16 Q1011 NOSIG

Closest aviation forecast (TAF) to Arad Airport

Closest forecast is Ben Gurion International Airport, 49.4 nm (91.6 km) NNW. Retrieved 2022/05/23 06:06 UTC (2 hours ago):

TAF TAF LLBG 230502Z 2306/2406 19007KT 9999 SCT025 BECMG 2307/2308 26012KT FEW030 BECMG 2314/2317 VRB04KT CAVOK PROB40 TEMPO 2322/2406 17005KT 9999 SCT020 TX26/2311Z TN18/2403Z